Time;durP1;ratioP1;P1;durP2;ratioP2;P2;SDS_P1;SDS_P2;PMS_P1;PMS_P2;Temp;Humidity;BMP_temperature;BMP_pressure;BME280_temperature;BME280_humidity;BME280_pressure;Samples;Min_cycle;Max_cycle;Signal;HPM_P1;HPM_P2
2023/09/04 00:02:03;;;;;;;13.55;4.50;;;;;;;26.57;36.16;100046.16;1760185;80;21319;-79
2023/09/04 00:05:10;;;;;;;8.43;4.60;;;;;;;26.46;36.28;100056.59;1771074;81;21929;-79
2023/09/04 00:08:15;;;;;;;9.40;4.35;;;;;;;26.48;36.39;100046.75;1771064;81;21906;-79
2023/09/04 00:11:21;;;;;;;7.35;4.85;;;;;;;27.05;35.47;100053.42;1769628;81;22639;-79
2023/09/04 00:14:26;;;;;;;10.05;4.55;;;;;;;26.62;36.05;100058.18;1770874;81;21336;-79
2023/09/04 00:17:31;;;;;;;10.30;3.95;;;;;;;26.81;35.77;100049.09;1770980;81;21319;-79
2023/09/04 00:20:37;;;;;;;8.40;4.20;;;;;;;26.85;35.70;100048.80;1770515;81;21386;-79
2023/09/04 00:23:42;;;;;;;8.05;4.20;;;;;;;26.60;35.96;100046.42;1771066;81;21300;-79
2023/09/04 00:26:47;;;;;;;7.60;4.00;;;;;;;26.46;36.33;100052.39;1771141;81;21303;-79
2023/09/04 00:29:52;;;;;;;6.70;4.33;;;;;;;26.68;35.98;100054.24;1770805;81;21861;-78
2023/09/04 00:32:59;;;;;;;7.75;3.85;;;;;;;26.54;36.25;100053.73;1771089;81;21854;-79
2023/09/04 00:36:05;;;;;;;6.37;4.40;;;;;;;26.53;36.34;100048.69;1769664;81;21319;-79
2023/09/04 00:39:10;;;;;;;8.48;4.35;;;;;;;26.67;36.02;100043.29;1769644;79;21705;-78
2023/09/04 00:42:15;;;;;;;11.50;4.78;;;;;;;26.69;36.05;100040.48;1769514;81;21343;-79
2023/09/04 00:45:20;;;;;;;7.42;3.90;;;;;;;26.74;36.06;100046.06;1769664;81;21304;-79
2023/09/04 00:48:26;;;;;;;8.95;4.35;;;;;;;27.05;35.54;100052.02;1771138;81;21264;-79
2023/09/04 00:51:25;;;;;;;9.95;4.72;;;;;;;26.88;35.80;100059.45;1770191;81;21288;-79
2023/09/04 00:54:17;;;;;;;8.18;4.60;;;;;;;26.94;35.82;100056.88;1769591;81;21851;-79
2023/09/04 00:57:04;;;;;;;15.53;4.12;;;;;;;26.85;35.91;100051.60;1771048;81;21308;-79
2023/09/04 00:59:57;;;;;;;8.50;5.08;;;;;;;26.45;36.41;100057.73;1771059;81;21854;-79
2023/09/04 01:03:02;;;;;;;7.17;4.58;;;;;;;26.46;36.34;100052.39;1769823;81;21898;-79
2023/09/04 01:06:09;;;;;;;9.60;4.87;;;;;;;26.59;36.12;100045.32;1770871;81;21867;-78
2023/09/04 01:09:15;;;;;;;15.08;4.70;;;;;;;26.59;36.47;100052.33;1771136;81;21870;-79
2023/09/04 01:12:31;;;;;;;9.08;5.80;;;;;;;26.85;36.08;100044.59;1769793;81;21855;-79
2023/09/04 01:15:36;;;;;;;7.50;4.87;;;;;;;26.78;36.27;100046.89;1771271;81;21318;-79
2023/09/04 01:18:41;;;;;;;7.10;4.70;;;;;;;26.64;36.44;100037.71;1770938;81;21919;-78
2023/09/04 01:21:47;;;;;;;14.45;5.15;;;;;;;26.95;36.03;100041.70;1770109;81;21358;-78
2023/09/04 01:24:52;;;;;;;7.60;4.37;;;;;;;26.93;36.12;100032.75;1771038;81;21295;-79
2023/09/04 01:28:02;;;;;;;7.17;4.92;;;;;;;26.87;36.17;100031.95;1771040;81;21858;-79
2023/09/04 01:31:27;;;;;;;9.05;4.83;;;;;;;26.65;36.55;100032.37;1770873;81;21327;-79
2023/09/04 01:34:37;;;;;;;10.55;4.50;;;;;;;26.62;36.74;100035.74;1771182;81;21307;-79
2023/09/04 01:37:43;;;;;;;9.33;4.80;;;;;;;26.70;36.64;100035.14;1770675;79;21350;-80
2023/09/04 01:40:49;;;;;;;8.58;5.37;;;;;;;26.70;36.70;100039.91;1770994;81;21307;-80
2023/09/04 01:43:55;;;;;;;8.15;4.67;;;;;;;26.75;36.57;100037.91;1771032;81;21871;-80
2023/09/04 01:47:00;;;;;;;10.25;5.17;;;;;;;26.71;36.64;100034.00;1769616;79;21335;-80
2023/09/04 01:50:06;;;;;;;8.05;5.30;;;;;;;26.71;36.76;100022.78;1769685;81;21921;-80
2023/09/04 01:53:11;;;;;;;8.93;4.80;;;;;;;26.50;37.07;100022.65;1769538;81;21299;-79
2023/09/04 01:56:18;;;;;;;7.83;4.62;;;;;;;26.64;37.09;100020.05;1770954;81;21645;-79
2023/09/04 01:59:25;;;;;;;8.85;4.85;;;;;;;26.69;37.11;100023.66;1771000;81;21343;-79
2023/09/04 02:02:31;;;;;;;8.35;5.10;;;;;;;26.45;37.63;100015.67;1770209;81;21319;-79
2023/09/04 02:05:38;;;;;;;8.53;4.90;;;;;;;26.28;37.96;100027.20;1771073;81;21873;-79
2023/09/04 02:08:45;;;;;;;8.23;5.00;;;;;;;26.59;37.55;100024.28;1769582;81;21296;-80
2023/09/04 02:11:50;;;;;;;10.60;5.35;;;;;;;26.53;37.63;100017.84;1770831;81;21867;-80
2023/09/04 02:15:00;;;;;;;8.28;4.95;;;;;;;26.48;37.72;100020.11;1771120;81;21847;-80
2023/09/04 02:18:05;;;;;;;7.55;4.70;;;;;;;26.44;37.72;100022.38;1770256;81;21322;-79
2023/09/04 02:21:11;;;;;;;8.93;4.87;;;;;;;26.72;37.38;100025.89;1770839;81;21300;-79
2023/09/04 02:24:16;;;;;;;7.85;5.17;;;;;;;26.37;38.01;100021.84;1771091;81;21319;-79
2023/09/04 02:27:22;;;;;;;12.10;5.33;;;;;;;26.36;38.05;100017.36;1771104;81;21847;-79
2023/09/04 02:30:27;;;;;;;10.60;5.08;;;;;;;26.33;38.18;100022.13;1770944;81;21304;-79
2023/09/04 02:33:33;;;;;;;7.70;5.25;;;;;;;26.38;38.19;100019.30;1769608;81;21327;-79
2023/09/04 02:36:38;;;;;;;12.43;5.33;;;;;;;26.39;38.24;100022.38;1770941;81;21355;-79
2023/09/04 02:39:44;;;;;;;8.90;5.15;;;;;;;26.30;38.37;100019.89;1770985;81;21299;-79
2023/09/04 02:42:51;;;;;;;11.63;5.85;;;;;;;26.25;38.56;100017.42;1769593;81;21913;-79
2023/09/04 02:45:57;;;;;;;18.67;6.30;;;;;;;26.30;38.60;100022.70;1770917;81;21308;-79
2023/09/04 02:49:03;;;;;;;11.20;6.25;;;;;;;26.23;38.79;100014.05;1770395;81;21387;-79
2023/09/04 02:52:09;;;;;;;12.50;6.92;;;;;;;26.28;38.83;100019.36;1771049;81;21311;-79
2023/09/04 02:55:13;;;;;;;12.43;6.80;;;;;;;26.27;38.89;100016.28;1770882;81;21303;-78
2023/09/04 02:58:19;;;;;;;11.20;6.10;;;;;;;26.44;38.63;100016.77;1770889;81;21332;-79
2023/09/04 03:01:25;;;;;;;15.80;7.30;;;;;;;26.28;38.97;100024.40;1770923;81;21846;-79
2023/09/04 03:04:31;;;;;;;10.03;6.25;;;;;;;26.51;38.63;100014.50;1765747;79;21307;-79
2023/09/04 03:07:36;;;;;;;12.68;6.67;;;;;;;26.50;38.71;100015.64;1744757;82;21298;-79
2023/09/04 03:10:41;;;;;;;15.18;6.87;;;;;;;26.48;38.80;100018.71;1744658;82;21301;-78
2023/09/04 03:13:47;;;;;;;10.58;7.25;;;;;;;26.63;38.69;100022.02;1743766;82;21300;-79
2023/09/04 03:16:53;;;;;;;10.40;7.15;;;;;;;26.69;38.56;100025.05;1744697;82;21308;-78
2023/09/04 03:20:04;;;;;;;14.18;7.08;;;;;;;26.52;38.88;100030.20;1743793;82;21347;-79
2023/09/04 03:23:11;;;;;;;18.32;7.75;;;;;;;26.65;38.73;100033.77;1744274;82;21336;-79
2023/09/04 03:26:17;;;;;;;13.55;7.50;;;;;;;26.52;39.05;100037.20;1744704;82;21276;-79
2023/09/04 03:29:23;;;;;;;19.23;9.35;;;;;;;26.57;39.04;100032.97;1743392;82;21846;-80
2023/09/04 03:32:32;;;;;;;18.65;9.38;;;;;;;26.75;38.76;100025.29;1745055;82;21307;-79
2023/09/04 03:35:38;;;;;;;17.52;8.55;;;;;;;26.81;38.78;100026.66;1743466;82;21359;-80
2023/09/04 03:38:43;;;;;;;13.20;9.10;;;;;;;27.02;38.41;100023.99;1743681;81;21335;-80
2023/09/04 03:41:41;;;;;;;19.95;10.10;;;;;;;26.87;38.66;100022.70;1744878;82;21327;-79
2023/09/04 03:44:33;;;;;;;27.90;10.75;;;;;;;26.87;38.71;100026.34;1743343;82;21926;-79
2023/09/04 03:47:38;;;;;;;15.78;10.28;;;;;;;26.91;38.72;100026.58;1743387;82;21296;-79
2023/09/04 03:50:45;;;;;;;17.10;9.68;;;;;;;27.00;38.57;100030.44;1728818;82;21312;-79
2023/09/04 03:53:51;;;;;;;15.20;9.45;;;;;;;26.97;38.64;100039.47;1744108;82;21328;-79
2023/09/04 03:56:58;;;;;;;16.30;9.90;;;;;;;27.04;38.56;100036.31;1744838;82;21293;-79
2023/09/04 04:00:14;;;;;;;18.35;9.30;;;;;;;26.87;38.72;100026.34;1744673;82;21292;-79
2023/09/04 04:03:15;;;;;;;17.48;9.88;;;;;;;26.95;38.68;100027.67;1744690;82;21890;-79
2023/09/04 04:06:25;;;;;;;13.68;8.83;;;;;;;27.05;38.49;100035.18;1745075;80;21367;-79
2023/09/04 04:09:30;;;;;;;;;;;;;;;27.07;38.55;100029.56;1746183;82;21307;-79
2023/09/04 04:12:35;;;;;;;19.40;10.20;;;;;;;26.85;38.92;100026.34;1744751;82;20286;-79
2023/09/04 04:15:41;;;;;;;22.35;8.90;;;;;;;26.82;39.03;100029.73;1744709;82;21843;-79
2023/09/04 04:18:47;;;;;;;15.05;9.38;;;;;;;26.78;39.16;100023.88;1744699;82;21296;-79
2023/09/04 04:21:52;;;;;;;16.27;9.15;;;;;;;26.97;38.96;100028.23;1744900;82;21312;-79
2023/09/04 04:24:57;;;;;;;17.92;9.40;;;;;;;27.01;38.96;100028.77;1743631;82;21336;-79
2023/09/04 04:28:02;;;;;;;17.65;9.23;;;;;;;26.96;39.06;100029.34;1744513;82;21328;-80
2023/09/04 04:31:10;;;;;;;32.50;9.78;;;;;;;27.20;38.78;100028.09;1726835;82;21855;-78
2023/09/04 04:34:15;;;;;;;18.07;8.50;;;;;;;27.40;38.58;100031.29;1744421;82;21299;-78
2023/09/04 04:37:21;;;;;;;25.70;8.70;;;;;;;27.51;38.54;100030.87;1767448;79;22656;-79
2023/09/04 04:40:30;;;;;;;15.85;8.08;;;;;;;27.73;38.18;100030.99;1772831;80;21374;-79
2023/09/04 04:43:36;;;;;;;;;;;;;;;28.11;37.62;100031.97;1784412;80;21280;-78
2023/09/04 04:46:40;;;;;;;17.65;9.68;;;;;;;28.28;37.38;100028.11;1783560;80;20299;-79
2023/09/04 04:49:46;;;;;;;21.57;8.00;;;;;;;28.45;36.89;100031.84;1783604;80;21291;-79
2023/09/04 04:52:51;;;;;;;18.48;7.78;;;;;;;28.72;36.41;100024.72;1783616;80;21300;-80
2023/09/04 04:55:57;;;;;;;14.80;9.78;;;;;;;28.66;36.56;100018.91;1792756;80;21382;-79
2023/09/04 04:59:02;;;;;;;14.05;8.38;;;;;;;29.08;35.64;100032.09;1794261;80;21345;-79
2023/09/04 05:02:09;;;;;;;14.90;7.80;;;;;;;28.79;36.00;100032.20;1783082;80;21326;-79
2023/09/04 05:05:15;;;;;;;19.15;7.47;;;;;;;28.88;35.90;100035.17;1777664;80;21406;-80
2023/09/04 05:08:20;;;;;;;15.55;7.40;;;;;;;29.37;35.05;100038.09;1779128;79;21328;-79
2023/09/04 05:11:25;;;;;;;11.05;6.33;;;;;;;29.46;35.11;100032.84;1787238;79;21942;-79
2023/09/04 05:14:32;;;;;;;16.50;7.42;;;;;;;29.26;35.56;100033.18;1781509;79;21295;-80
2023/09/04 05:17:37;;;;;;;18.12;6.97;;;;;;;29.27;35.50;100031.48;1782074;79;21295;-79
2023/09/04 05:20:46;;;;;;;15.75;6.97;;;;;;;29.62;35.11;100041.05;1748777;81;21350;-80
2023/09/04 05:23:52;;;;;;;9.43;5.97;;;;;;;29.24;35.60;100027.86;1775335;79;22467;-79
2023/09/04 05:26:57;;;;;;;11.28;5.47;;;;;;;30.03;34.37;100023.63;1769734;79;21286;-79
2023/09/04 05:30:03;;;;;;;9.78;6.33;;;;;;;30.24;34.27;100021.81;1779329;79;21850;-80
2023/09/04 05:33:08;;;;;;;12.50;5.95;;;;;;;29.88;34.72;100025.34;1745710;81;21307;-80
2023/09/04 05:36:14;;;;;;;9.98;6.08;;;;;;;30.02;34.80;100028.17;1781503;79;21280;-80
2023/09/04 05:39:19;;;;;;;9.03;5.20;;;;;;;30.52;34.13;100022.62;1778461;79;21379;-80
2023/09/04 05:42:24;;;;;;;10.90;5.03;;;;;;;30.64;34.06;100028.56;1749764;81;21363;-80
2023/09/04 05:45:30;;;;;;;13.48;6.00;;;;;;;30.54;34.11;100023.16;1786090;79;21280;-80
2023/09/04 05:48:35;;;;;;;12.03;5.80;;;;;;;30.80;33.64;100021.43;1795178;79;21352;-79
2023/09/04 05:51:42;;;;;;;8.93;5.45;;;;;;;31.14;32.95;100018.63;1780649;79;21307;-80
2023/09/04 05:54:50;;;;;;;10.35;5.17;;;;;;;31.11;33.11;100030.59;1784815;79;21830;-79
2023/09/04 05:57:56;;;;;;;7.45;5.30;;;;;;;31.20;33.01;100023.02;1783816;79;21292;-79
2023/09/04 06:01:01;;;;;;;12.47;5.22;;;;;;;31.15;33.28;100032.17;1780479;79;21295;-80
2023/09/04 06:04:07;;;;;;;9.03;5.15;;;;;;;30.99;33.29;100028.91;1745018;81;21323;-79
2023/09/04 06:07:14;;;;;;;13.43;5.50;;;;;;;31.55;32.77;100026.10;1783680;79;21259;-80
2023/09/04 06:10:19;;;;;;;9.95;5.80;;;;;;;31.54;32.54;100024.44;1777360;79;21327;-79
2023/09/04 06:13:26;;;;;;;12.28;5.75;;;;;;;31.59;32.31;100023.47;1776906;79;21333;-79
2023/09/04 06:16:30;;;;;;;13.65;5.90;;;;;;;31.37;32.77;100013.02;1787376;79;21334;-80
2023/09/04 06:19:38;;;;;;;8.48;5.42;;;;;;;31.28;32.95;100012.38;1776430;79;21328;-79
2023/09/04 06:22:43;;;;;;;14.40;5.50;;;;;;;32.11;31.91;100014.69;1784581;79;21243;-80
2023/09/04 06:25:48;;;;;;;10.53;4.97;;;;;;;32.29;31.42;100016.41;1747702;81;21315;-80
2023/09/04 06:28:53;;;;;;;9.78;5.40;;;;;;;32.26;31.71;100022.72;1781029;79;21390;-79
2023/09/04 06:31:58;;;;;;;11.50;5.58;;;;;;;32.34;31.32;100025.33;1743571;81;21331;-80
2023/09/04 06:35:04;;;;;;;10.65;5.10;;;;;;;32.21;31.57;100028.53;1776926;79;21292;-80
2023/09/04 06:38:12;;;;;;;19.60;5.47;;;;;;;32.06;32.13;100020.49;1776454;79;22349;-80
2023/09/04 06:41:17;;;;;;;14.10;5.45;;;;;;;32.72;30.69;100025.59;1783972;79;21288;-80
2023/09/04 06:44:24;;;;;;;9.35;5.17;;;;;;;32.80;30.63;100037.52;1783893;79;21299;-79
2023/09/04 06:47:29;;;;;;;8.18;5.42;;;;;;;32.87;30.25;100030.52;1780682;79;22573;-80
2023/09/04 06:50:34;;;;;;;11.50;4.85;;;;;;;32.83;30.06;100022.68;1796273;79;21312;-80
2023/09/04 06:53:39;;;;;;;11.25;5.00;;;;;;;32.73;30.79;100017.34;1774159;79;21295;-79
2023/09/04 06:56:45;;;;;;;9.65;4.90;;;;;;;32.82;30.63;100019.61;1773108;79;21303;-80
2023/09/04 06:59:52;;;;;;;8.48;4.55;;;;;;;33.07;29.80;100018.55;1772896;79;22240;-81
2023/09/04 07:03:02;;;;;;;14.25;4.85;;;;;;;33.11;29.95;100011.64;1778724;79;21311;-80
2023/09/04 07:06:10;;;;;;;12.30;5.22;;;;;;;33.01;29.86;100006.56;1775338;79;22425;-79
2023/09/04 07:09:15;;;;;;;11.95;5.33;;;;;;;32.98;29.87;100000.72;1775583;79;21441;-79
2023/09/04 07:12:21;;;;;;;9.50;4.78;;;;;;;33.14;30.00;100010.39;1771352;79;21289;-80
2023/09/04 07:15:27;;;;;;;16.15;4.95;;;;;;;33.45;29.71;100024.95;1781696;79;21312;-80
2023/09/04 07:18:33;;;;;;;10.50;4.55;;;;;;;33.59;29.35;100018.50;1785268;79;22002;-80
2023/09/04 07:21:40;;;;;;;8.45;4.92;;;;;;;33.04;30.09;100006.48;1778850;79;21343;-80
2023/09/04 07:24:46;;;;;;;7.12;4.80;;;;;;;33.53;29.40;100018.45;1788059;79;21300;-80
2023/09/04 07:27:53;;;;;;;9.05;4.75;;;;;;;33.66;29.46;100019.42;1785414;79;21626;-80
2023/09/04 07:31:07;;;;;;;9.75;5.17;;;;;;;33.81;29.42;100012.61;1781486;79;21294;-81
2023/09/04 07:34:13;;;;;;;12.37;4.70;;;;;;;34.14;28.61;100006.33;1782953;79;21871;-81
2023/09/04 07:37:18;;;;;;;9.73;4.90;;;;;;;34.16;28.95;100001.71;1790349;79;21338;-81
2023/09/04 07:40:23;;;;;;;12.10;4.83;;;;;;;34.20;28.77;99997.85;1777732;79;21296;-80
2023/09/04 07:43:29;;;;;;;14.95;5.08;;;;;;;33.94;29.10;100012.73;1782515;79;21268;-79
2023/09/04 07:46:34;;;;;;;8.93;5.10;;;;;;;34.34;28.43;100016.89;1784096;79;21323;-80
2023/09/04 07:49:39;;;;;;;9.98;4.47;;;;;;;34.25;28.60;100001.08;1785004;79;21287;-79
2023/09/04 07:52:46;;;;;;;10.00;5.35;;;;;;;34.42;28.34;100004.42;1781473;79;21287;-79
2023/09/04 07:55:54;;;;;;;6.33;4.80;;;;;;;34.19;28.49;99994.77;1793763;79;21875;-80
2023/09/04 07:58:59;;;;;;;10.43;5.03;;;;;;;34.36;28.20;100006.63;1787849;79;21708;-79
2023/09/04 08:02:04;;;;;;;14.13;4.90;;;;;;;34.22;28.43;100004.62;1783361;79;21287;-80
2023/09/04 08:05:11;;;;;;;9.80;4.45;;;;;;;34.40;28.39;99999.69;1782895;79;21335;-79
2023/09/04 08:08:19;;;;;;;9.75;4.87;;;;;;;34.47;28.15;100017.86;1792718;79;21385;-79
2023/09/04 08:11:24;;;;;;;11.75;4.67;;;;;;;34.40;28.16;100023.81;1771367;79;21329;-80
2023/09/04 08:14:35;;;;;;;11.05;4.97;;;;;;;34.11;28.53;100010.42;1767964;79;21322;-79
2023/09/04 08:17:40;;;;;;;9.83;4.87;;;;;;;34.22;28.52;100008.30;1768744;81;21314;-80
2023/09/04 08:20:49;;;;;;;7.40;4.22;;;;;;;34.16;28.66;100013.06;1763583;80;21307;-79
2023/09/04 08:23:55;;;;;;;7.58;4.25;;;;;;;34.25;28.70;100008.18;1769753;79;21366;-79
2023/09/04 08:27:02;;;;;;;11.70;4.83;;;;;;;34.60;28.09;100012.27;1769058;79;21400;-79
2023/09/04 08:30:07;;;;;;;12.90;4.60;;;;;;;34.57;28.00;100006.09;1769510;80;21311;-80
2023/09/04 08:33:17;;;;;;;12.65;4.22;;;;;;;34.81;28.14;100001.15;1765628;79;21295;-79
2023/09/04 08:36:23;;;;;;;8.38;4.65;;;;;;;34.60;27.85;100011.69;1756687;79;21334;-79
2023/09/04 08:39:28;;;;;;;9.30;4.90;;;;;;;34.41;27.88;100005.60;1757917;81;21337;-80
2023/09/04 08:42:34;;;;;;;9.05;5.03;;;;;;;34.77;27.48;100007.30;1770006;81;21295;-79
2023/09/04 08:45:43;;;;;;;23.00;4.87;;;;;;;34.76;27.74;99996.27;1769416;79;21921;-79
2023/09/04 08:48:48;;;;;;;13.78;4.67;;;;;;;34.67;27.90;100003.43;1771333;79;21267;-79
2023/09/04 08:51:55;;;;;;;13.53;4.78;;;;;;;34.96;27.46;100000.31;1713777;81;21924;-79
2023/09/04 08:55:00;;;;;;;12.20;4.40;;;;;;;34.93;27.72;100009.52;1730884;81;22598;-80
2023/09/04 08:58:05;;;;;;;10.65;4.40;;;;;;;35.04;27.60;100000.83;1706166;82;21348;-79
2023/09/04 09:01:11;;;;;;;8.80;4.53;;;;;;;34.94;27.50;100015.44;1705739;82;21312;-79
2023/09/04 09:04:19;;;;;;;10.28;4.72;;;;;;;35.07;27.30;100014.36;1733489;81;21301;-80
2023/09/04 09:07:31;;;;;;;10.80;4.33;;;;;;;35.04;27.19;100005.09;1718118;81;22494;-79
2023/09/04 09:10:38;;;;;;;14.13;4.42;;;;;;;35.19;26.90;100024.34;1718857;81;21313;-79
2023/09/04 09:13:47;;;;;;;13.05;5.28;;;;;;;35.21;26.77;100011.22;1704131;83;21614;-80
2023/09/04 09:16:52;;;;;;;20.40;5.22;;;;;;;35.05;27.42;100009.59;1693418;82;21300;-80
2023/09/04 09:19:59;;;;;;;15.38;5.03;;;;;;;35.30;27.19;99996.34;1721645;82;21331;-78
2023/09/04 09:23:05;;;;;;;10.80;5.00;;;;;;;35.41;26.96;100006.08;1722422;82;21284;-78
2023/09/04 09:26:09;;;;;;;14.00;5.00;;;;;;;35.13;27.36;99997.91;1720670;82;21311;-78
2023/09/04 09:29:16;;;;;;;15.83;4.35;;;;;;;35.47;26.64;99991.90;1712181;82;21233;-79
2023/09/04 09:32:26;;;;;;;11.22;4.17;;;;;;;35.23;27.04;99999.73;1686215;83;21339;-80
2023/09/04 09:35:40;;;;;;;10.48;4.95;;;;;;;35.27;26.92;99988.49;1692487;83;21320;-79
2023/09/04 09:38:50;;;;;;;8.45;4.40;;;;;;;35.36;26.71;99994.92;1689797;84;22073;-79
2023/09/04 09:41:55;;;;;;;;;;;;;;;35.37;26.90;99998.59;1691399;84;21351;-80
2023/09/04 09:45:00;;;;;;;12.70;4.20;;;;;;;35.59;26.70;99996.21;1692812;83;20213;-79
2023/09/04 09:48:05;;;;;;;16.40;4.62;;;;;;;35.50;26.90;100001.16;1687841;84;21258;-80
2023/09/04 09:51:13;;;;;;;11.57;4.70;;;;;;;35.31;26.97;100000.23;1705537;83;21209;-79
2023/09/04 09:54:19;;;;;;;17.37;5.47;;;;;;;35.50;26.71;100012.53;1694290;82;21317;-80
2023/09/04 09:57:25;;;;;;;10.78;4.58;;;;;;;35.68;26.41;100010.34;1692654;84;21862;-80
2023/09/04 10:00:34;;;;;;;9.88;4.60;;;;;;;35.52;26.44;100024.38;1722112;82;21914;-80
2023/09/04 10:03:40;;;;;;;8.63;4.47;;;;;;;35.63;26.53;100006.30;1717605;82;21377;-80
2023/09/04 10:06:46;;;;;;;13.32;4.78;;;;;;;35.90;26.08;100025.30;1689983;84;22670;-80
2023/09/04 10:09:54;;;;;;;10.23;4.83;;;;;;;36.08;25.88;100023.92;1720514;82;22567;-80
2023/09/04 10:13:23;;;;;;;15.93;4.55;;;;;;;35.73;26.21;100017.81;1728162;81;21362;-80
2023/09/04 10:16:34;;;;;;;13.90;5.03;;;;;;;35.90;25.95;100009.64;1775024;79;21366;-81
2023/09/04 10:19:41;;;;;;;15.08;5.28;;;;;;;35.68;26.24;100018.87;1779986;79;22465;-80
2023/09/04 10:22:59;;;;;;;9.50;4.72;;;;;;;35.88;26.03;100008.59;1785549;79;21311;-80
2023/09/04 10:26:18;;;;;;;12.10;5.50;;;;;;;35.99;25.96;100006.13;1779661;79;22383;-79
2023/09/04 10:29:26;;;;;;;15.23;5.35;;;;;;;36.14;25.65;100013.98;1743565;81;21302;-80
2023/09/04 10:32:32;;;;;;;10.53;4.83;;;;;;;36.23;25.39;100028.08;1769604;79;22382;-80
2023/09/04 10:35:39;;;;;;;8.70;4.45;;;;;;;36.01;25.67;100024.53;1771430;79;21282;-80
2023/09/04 10:38:45;;;;;;;11.20;5.12;;;;;;;36.22;25.52;100043.51;1732588;81;21293;-80
2023/09/04 10:41:50;;;;;;;12.00;4.78;;;;;;;36.10;25.88;100028.69;1781297;79;21300;-80
2023/09/04 10:44:58;;;;;;;7.87;4.60;;;;;;;36.44;25.44;100016.61;1787125;79;21299;-80
2023/09/04 10:48:04;;;;;;;7.85;4.25;;;;;;;36.35;25.25;100028.09;1767752;79;21299;-80
2023/09/04 10:51:32;;;;;;;12.18;4.87;;;;;;;36.46;25.41;100017.08;1771180;79;21283;-80
2023/09/04 10:54:38;;;;;;;14.73;4.72;;;;;;;36.31;25.22;100019.42;1772880;79;21625;-79
2023/09/04 10:57:55;;;;;;;13.75;4.70;;;;;;;36.39;25.29;100022.52;1775469;79;21271;-80
2023/09/04 11:01:01;;;;;;;11.78;4.72;;;;;;;36.48;25.53;100026.94;1790656;79;21336;-80
2023/09/04 11:04:16;;;;;;;11.55;4.85;;;;;;;36.57;25.05;100029.06;1795676;79;21355;-79
2023/09/04 11:07:34;;;;;;;14.75;4.90;;;;;;;36.70;24.98;100029.88;1788743;79;21323;-79
2023/09/04 11:10:43;;;;;;;14.28;5.30;;;;;;;36.84;24.72;100030.33;1779068;79;21287;-79
2023/09/04 11:13:48;;;;;;;18.32;4.67;;;;;;;36.36;25.28;100034.02;1742580;81;21617;-78
2023/09/04 11:16:53;;;;;;;8.83;4.90;;;;;;;36.71;25.00;100027.27;1779712;79;21326;-78
2023/09/04 11:19:59;;;;;;;13.85;4.87;;;;;;;36.87;24.76;100022.23;1765088;79;21259;-78
2023/09/04 11:23:04;;;;;;;12.63;4.53;;;;;;;36.89;24.84;100029.81;1767407;79;21299;-79
2023/09/04 11:26:10;;;;;;;19.82;5.15;;;;;;;36.62;25.01;100023.72;1777757;79;21324;-79
2023/09/04 11:29:16;;;;;;;18.37;4.83;;;;;;;36.64;24.85;100039.84;1780662;79;21327;-78
2023/09/04 11:32:24;;;;;;;9.90;4.45;;;;;;;36.73;24.56;100031.17;1741908;81;21613;-78
2023/09/04 11:35:30;;;;;;;11.65;4.70;;;;;;;36.99;24.44;100027.34;1780957;79;22646;-79
2023/09/04 11:38:38;;;;;;;8.60;4.62;;;;;;;37.02;24.29;100026.60;1739906;81;21303;-79
2023/09/04 11:41:44;;;;;;;10.18;4.65;;;;;;;37.06;24.29;100019.59;1776056;79;21374;-79
2023/09/04 11:44:50;;;;;;;14.35;4.65;;;;;;;37.23;24.25;100022.15;1785908;79;21295;-78
2023/09/04 11:47:57;;;;;;;13.45;4.47;;;;;;;37.23;24.14;100017.88;1788365;79;21330;-79
2023/09/04 11:51:10;;;;;;;11.68;4.20;;;;;;;37.37;23.98;100032.31;1787618;79;21624;-78
2023/09/04 11:54:38;;;;;;;13.65;4.47;;;;;;;37.28;24.11;100019.03;1788065;79;21279;-78
2023/09/04 11:57:42;;;;;;;15.20;4.35;;;;;;;37.33;24.17;100022.22;1776399;79;21901;-79
2023/09/04 12:00:50;;;;;;;10.15;4.28;;;;;;;37.37;23.77;100019.48;1793900;79;21830;-78
2023/09/04 12:03:56;;;;;;;12.33;4.92;;;;;;;37.37;23.77;100019.48;1787987;79;21307;-79
2023/09/04 12:07:02;;;;;;;12.98;4.17;;;;;;;37.20;24.25;100032.02;1796464;79;21302;-78
2023/09/04 12:10:09;;;;;;;12.10;4.47;;;;;;;36.94;24.39;100021.08;1785926;79;22275;-78
2023/09/04 12:13:15;;;;;;;9.10;4.45;;;;;;;37.17;24.09;100017.05;1789948;79;21288;-78
2023/09/04 12:16:25;;;;;;;15.28;4.75;;;;;;;37.27;23.89;100020.84;1715140;81;21912;-79
2023/09/04 12:19:31;;;;;;;12.03;5.00;;;;;;;37.47;24.22;100026.11;1693627;83;22025;-78
2023/09/04 12:22:37;;;;;;;12.98;5.22;;;;;;;37.47;24.22;100026.11;1709625;83;21925;-79
2023/09/04 12:25:48;;;;;;;13.75;5.12;;;;;;;37.25;23.90;100024.03;1709610;83;21319;-79
2023/09/04 12:28:53;;;;;;;13.93;4.47;;;;;;;37.21;24.01;100020.84;1693768;83;21331;-79
2023/09/04 12:31:59;;;;;;;10.25;5.45;;;;;;;37.05;24.40;100023.04;1703251;83;22419;-78
2023/09/04 12:35:12;;;;;;;12.18;4.20;;;;;;;37.05;24.40;100023.04;1684579;83;21326;-79
2023/09/04 12:38:18;;;;;;;7.92;4.55;;;;;;;37.08;24.21;100028.03;1682473;83;21342;-78
2023/09/04 12:41:23;;;;;;;7.03;4.37;;;;;;;36.91;24.54;100021.19;1707481;83;21359;-79
2023/09/04 12:44:28;;;;;;;10.03;4.58;;;;;;;37.00;24.15;100015.34;1698215;83;21332;-79
2023/09/04 12:47:34;;;;;;;10.63;4.85;;;;;;;37.00;24.15;100015.34;1699450;83;21364;-78
2023/09/04 12:50:41;;;;;;;13.85;4.70;;;;;;;37.14;24.61;100013.52;1699516;83;21340;-78
2023/09/04 12:53:47;;;;;;;12.80;4.95;;;;;;;37.14;24.61;100013.52;1697627;83;21336;-78
2023/09/04 12:56:54;;;;;;;9.00;4.60;;;;;;;37.22;24.01;100015.36;1687480;83;21363;-78
2023/09/04 12:59:59;;;;;;;18.73;5.47;;;;;;;37.22;24.01;100015.36;1711514;83;21354;-78
2023/09/04 13:03:05;;;;;;;10.48;4.33;;;;;;;37.31;24.18;100012.62;1703875;83;21362;-78
2023/09/04 13:06:12;;;;;;;11.33;5.28;;;;;;;37.32;23.93;100016.30;1681589;84;21345;-78
2023/09/04 13:09:18;;;;;;;9.35;5.12;;;;;;;37.29;24.06;100020.69;1693458;83;21353;-77
2023/09/04 13:12:23;;;;;;;16.10;4.97;;;;;;;37.33;24.06;100013.07;1688361;85;21941;-78
2023/09/04 13:15:29;;;;;;;13.88;4.95;;;;;;;37.19;24.32;100012.66;1690237;82;21342;-78
2023/09/04 13:18:35;;;;;;;14.33;5.62;;;;;;;37.21;24.20;100020.23;1691423;83;21367;-78
2023/09/04 13:21:41;;;;;;;12.55;4.33;;;;;;;37.15;24.21;100003.77;1697997;83;21374;-78
2023/09/04 13:24:48;;;;;;;13.00;5.00;;;;;;;37.38;24.05;100015.46;1705447;83;22594;-78
2023/09/04 13:27:54;;;;;;;17.77;5.53;;;;;;;37.29;24.03;100010.70;1717233;83;21359;-78
2023/09/04 13:30:59;;;;;;;14.10;5.55;;;;;;;37.23;24.31;100025.00;1717189;83;21343;-78
2023/09/04 13:34:05;;;;;;;11.40;4.75;;;;;;;37.23;24.31;100025.00;1705824;83;21949;-78
2023/09/04 13:37:11;;;;;;;13.15;5.55;;;;;;;37.25;23.66;100019.75;1710669;83;21431;-78
2023/09/04 13:40:18;;;;;;;9.88;4.78;;;;;;;37.30;23.77;100025.19;1697825;83;21355;-78
2023/09/04 13:43:24;;;;;;;11.80;4.53;;;;;;;37.35;23.89;100022.08;1688518;85;21358;-78
2023/09/04 13:46:30;;;;;;;11.40;4.80;;;;;;;37.29;23.77;100022.11;1688163;85;21340;-78
2023/09/04 13:49:38;;;;;;;9.70;5.17;;;;;;;37.37;23.66;100023.16;1689856;85;21451;-78
2023/09/04 13:52:44;;;;;;;10.98;5.25;;;;;;;37.54;23.60;100018.56;1688765;85;21386;-78
2023/09/04 13:55:51;;;;;;;10.82;4.85;;;;;;;37.35;23.67;100025.53;1688888;83;21958;-78
2023/09/04 13:58:57;;;;;;;12.13;4.55;;;;;;;37.38;23.71;100027.70;1702349;84;21310;-79
2023/09/04 14:02:03;;;;;;;19.15;5.00;;;;;;;37.25;23.94;100029.73;1702499;84;21897;-78
2023/09/04 14:05:11;;;;;;;16.40;4.60;;;;;;;37.38;23.80;100024.84;1702872;84;21353;-78
2023/09/04 14:08:15;;;;;;;9.98;4.42;;;;;;;37.48;23.71;100030.02;1702621;84;21944;-78
2023/09/04 14:11:22;;;;;;;9.40;4.50;;;;;;;37.51;23.43;100027.05;1702152;84;21322;-78
2023/09/04 14:14:28;;;;;;;18.05;4.42;;;;;;;37.48;23.52;100017.18;1702288;84;21408;-78
2023/09/04 14:17:34;;;;;;;13.65;4.78;;;;;;;37.26;23.56;100022.83;1714426;82;21325;-78
2023/09/04 14:20:42;;;;;;;9.18;4.65;;;;;;;37.10;23.47;100024.80;1768131;81;21300;-78
2023/09/04 14:23:48;;;;;;;6.10;4.03;;;;;;;36.95;23.49;100028.42;1766999;80;21311;-78